sensor_id;sensor_type;location;lat;lon;timestamp;P1;durP1;ratioP1;P2;durP2;ratioP2
18592;SDS011;9426;54.118;17.948;2024-01-30T00:03:32;77.67;;;31.77;;
18592;SDS011;9426;54.118;17.948;2024-01-30T00:08:57;76.77;;;33.13;;
18592;SDS011;9426;54.118;17.948;2024-01-30T00:14:20;76.67;;;34.27;;
18592;SDS011;9426;54.118;17.948;2024-01-30T00:19:45;78.07;;;33.97;;
18592;SDS011;9426;54.118;17.948;2024-01-30T00:25:09;79.77;;;33.70;;
18592;SDS011;9426;54.118;17.948;2024-01-30T00:30:33;82.90;;;35.23;;
18592;SDS011;9426;54.118;17.948;2024-01-30T00:35:58;81.53;;;34.47;;
18592;SDS011;9426;54.118;17.948;2024-01-30T00:41:22;94.13;;;36.63;;
18592;SDS011;9426;54.118;17.948;2024-01-30T00:46:46;88.40;;;36.60;;
18592;SDS011;9426;54.118;17.948;2024-01-30T00:52:12;88.13;;;36.83;;
18592;SDS011;9426;54.118;17.948;2024-01-30T00:57:35;79.17;;;35.00;;
18592;SDS011;9426;54.118;17.948;2024-01-30T01:02:59;85.50;;;36.00;;
18592;SDS011;9426;54.118;17.948;2024-01-30T01:08:25;85.23;;;35.13;;
18592;SDS011;9426;54.118;17.948;2024-01-30T01:13:49;83.90;;;35.80;;
18592;SDS011;9426;54.118;17.948;2024-01-30T01:19:13;86.37;;;36.47;;
18592;SDS011;9426;54.118;17.948;2024-01-30T01:24:43;79.63;;;34.70;;
18592;SDS011;9426;54.118;17.948;2024-01-30T01:30:08;95.47;;;39.03;;
18592;SDS011;9426;54.118;17.948;2024-01-30T01:35:33;81.63;;;36.20;;
18592;SDS011;9426;54.118;17.948;2024-01-30T01:40:58;89.43;;;35.47;;
18592;SDS011;9426;54.118;17.948;2024-01-30T01:46:22;80.57;;;35.53;;
18592;SDS011;9426;54.118;17.948;2024-01-30T01:51:47;90.00;;;35.63;;
18592;SDS011;9426;54.118;17.948;2024-01-30T01:57:13;76.93;;;33.77;;
18592;SDS011;9426;54.118;17.948;2024-01-30T02:02:38;73.97;;;34.87;;
18592;SDS011;9426;54.118;17.948;2024-01-30T02:08:02;81.83;;;34.37;;
18592;SDS011;9426;54.118;17.948;2024-01-30T02:13:28;85.10;;;35.37;;
18592;SDS011;9426;54.118;17.948;2024-01-30T02:18:52;89.60;;;36.70;;
18592;SDS011;9426;54.118;17.948;2024-01-30T02:24:20;84.97;;;37.07;;
18592;SDS011;9426;54.118;17.948;2024-01-30T02:29:44;95.83;;;35.93;;
18592;SDS011;9426;54.118;17.948;2024-01-30T02:35:08;82.77;;;36.23;;
18592;SDS011;9426;54.118;17.948;2024-01-30T02:40:34;87.40;;;35.07;;
18592;SDS011;9426;54.118;17.948;2024-01-30T02:45:58;79.07;;;34.07;;
18592;SDS011;9426;54.118;17.948;2024-01-30T02:51:22;80.50;;;34.23;;
18592;SDS011;9426;54.118;17.948;2024-01-30T02:56:47;80.70;;;35.17;;
18592;SDS011;9426;54.118;17.948;2024-01-30T03:02:11;78.40;;;34.60;;
18592;SDS011;9426;54.118;17.948;2024-01-30T03:07:35;84.23;;;35.03;;
18592;SDS011;9426;54.118;17.948;2024-01-30T03:13:00;87.43;;;35.07;;
18592;SDS011;9426;54.118;17.948;2024-01-30T03:18:24;85.07;;;35.47;;
18592;SDS011;9426;54.118;17.948;2024-01-30T03:23:48;85.03;;;34.33;;
18592;SDS011;9426;54.118;17.948;2024-01-30T03:29:14;74.30;;;32.27;;
18592;SDS011;9426;54.118;17.948;2024-01-30T03:34:38;82.40;;;33.50;;
18592;SDS011;9426;54.118;17.948;2024-01-30T03:40:02;86.33;;;34.43;;
18592;SDS011;9426;54.118;17.948;2024-01-30T03:45:28;84.63;;;35.00;;
18592;SDS011;9426;54.118;17.948;2024-01-30T03:50:52;79.33;;;33.33;;
18592;SDS011;9426;54.118;17.948;2024-01-30T03:56:16;87.60;;;36.70;;
18592;SDS011;9426;54.118;17.948;2024-01-30T04:01:44;83.30;;;35.30;;
18592;SDS011;9426;54.118;17.948;2024-01-30T04:07:09;86.27;;;33.60;;
18592;SDS011;9426;54.118;17.948;2024-01-30T04:12:33;78.37;;;32.67;;
18592;SDS011;9426;54.118;17.948;2024-01-30T04:17:58;71.03;;;31.90;;
18592;SDS011;9426;54.118;17.948;2024-01-30T04:23:22;83.73;;;34.30;;
18592;SDS011;9426;54.118;17.948;2024-01-30T04:28:46;77.70;;;31.60;;
18592;SDS011;9426;54.118;17.948;2024-01-30T04:34:11;75.57;;;30.60;;
18592;SDS011;9426;54.118;17.948;2024-01-30T04:39:36;74.70;;;33.50;;
18592;SDS011;9426;54.118;17.948;2024-01-30T04:45:00;87.20;;;35.73;;
18592;SDS011;9426;54.118;17.948;2024-01-30T04:50:25;76.57;;;34.10;;
18592;SDS011;9426;54.118;17.948;2024-01-30T04:55:48;80.20;;;33.67;;
18592;SDS011;9426;54.118;17.948;2024-01-30T05:01:14;78.90;;;33.97;;
18592;SDS011;9426;54.118;17.948;2024-01-30T05:06:40;77.10;;;33.90;;
18592;SDS011;9426;54.118;17.948;2024-01-30T05:12:06;76.20;;;33.30;;
18592;SDS011;9426;54.118;17.948;2024-01-30T05:17:31;87.03;;;34.43;;
18592;SDS011;9426;54.118;17.948;2024-01-30T05:22:59;73.20;;;29.53;;
18592;SDS011;9426;54.118;17.948;2024-01-30T05:28:23;85.40;;;37.47;;
18592;SDS011;9426;54.118;17.948;2024-01-30T05:33:47;78.03;;;36.10;;
18592;SDS011;9426;54.118;17.948;2024-01-30T05:39:12;79.80;;;33.00;;
18592;SDS011;9426;54.118;17.948;2024-01-30T05:44:36;71.00;;;31.37;;
18592;SDS011;9426;54.118;17.948;2024-01-30T05:50:00;72.50;;;31.33;;
18592;SDS011;9426;54.118;17.948;2024-01-30T05:55:26;76.10;;;33.40;;
18592;SDS011;9426;54.118;17.948;2024-01-30T06:00:50;72.77;;;31.77;;
18592;SDS011;9426;54.118;17.948;2024-01-30T06:06:14;71.90;;;31.90;;
18592;SDS011;9426;54.118;17.948;2024-01-30T06:11:39;85.17;;;32.97;;
18592;SDS011;9426;54.118;17.948;2024-01-30T06:17:03;79.23;;;33.63;;
18592;SDS011;9426;54.118;17.948;2024-01-30T06:22:27;74.87;;;30.67;;
18592;SDS011;9426;54.118;17.948;2024-01-30T06:27:53;75.97;;;31.63;;
18592;SDS011;9426;54.118;17.948;2024-01-30T06:33:17;73.00;;;32.10;;
18592;SDS011;9426;54.118;17.948;2024-01-30T06:38:40;72.67;;;33.10;;
18592;SDS011;9426;54.118;17.948;2024-01-30T06:44:06;71.60;;;30.23;;
18592;SDS011;9426;54.118;17.948;2024-01-30T06:49:30;77.60;;;31.77;;
18592;SDS011;9426;54.118;17.948;2024-01-30T06:54:54;71.37;;;29.83;;
18592;SDS011;9426;54.118;17.948;2024-01-30T07:00:21;81.17;;;31.03;;
18592;SDS011;9426;54.118;17.948;2024-01-30T07:05:45;75.27;;;29.40;;
18592;SDS011;9426;54.118;17.948;2024-01-30T07:11:09;70.67;;;31.17;;
18592;SDS011;9426;54.118;17.948;2024-01-30T07:16:35;68.80;;;31.40;;
18592;SDS011;9426;54.118;17.948;2024-01-30T07:21:59;71.83;;;30.97;;
18592;SDS011;9426;54.118;17.948;2024-01-30T07:27:23;91.57;;;32.50;;
18592;SDS011;9426;54.118;17.948;2024-01-30T07:32:49;70.33;;;31.10;;
18592;SDS011;9426;54.118;17.948;2024-01-30T07:38:13;76.33;;;33.30;;
18592;SDS011;9426;54.118;17.948;2024-01-30T07:43:38;67.90;;;28.57;;
18592;SDS011;9426;54.118;17.948;2024-01-30T07:49:03;71.60;;;30.27;;
18592;SDS011;9426;54.118;17.948;2024-01-30T07:54:28;64.57;;;29.77;;
18592;SDS011;9426;54.118;17.948;2024-01-30T07:59:56;64.93;;;28.50;;
18592;SDS011;9426;54.118;17.948;2024-01-30T08:05:28;65.23;;;29.00;;
18592;SDS011;9426;54.118;17.948;2024-01-30T08:10:52;63.83;;;28.63;;
18592;SDS011;9426;54.118;17.948;2024-01-30T08:16:17;60.37;;;26.43;;
18592;SDS011;9426;54.118;17.948;2024-01-30T08:21:43;60.13;;;27.93;;
18592;SDS011;9426;54.118;17.948;2024-01-30T08:27:07;61.83;;;26.27;;
18592;SDS011;9426;54.118;17.948;2024-01-30T08:32:31;62.53;;;25.60;;
18592;SDS011;9426;54.118;17.948;2024-01-30T08:37:57;55.90;;;24.90;;
18592;SDS011;9426;54.118;17.948;2024-01-30T08:43:20;57.00;;;26.07;;
18592;SDS011;9426;54.118;17.948;2024-01-30T08:48:44;64.87;;;26.60;;
18592;SDS011;9426;54.118;17.948;2024-01-30T08:54:10;55.13;;;25.63;;
18592;SDS011;9426;54.118;17.948;2024-01-30T08:59:34;56.43;;;25.20;;
18592;SDS011;9426;54.118;17.948;2024-01-30T09:04:58;54.90;;;25.27;;
18592;SDS011;9426;54.118;17.948;2024-01-30T09:10:23;54.40;;;22.93;;
18592;SDS011;9426;54.118;17.948;2024-01-30T09:15:47;56.03;;;24.30;;
18592;SDS011;9426;54.118;17.948;2024-01-30T09:21:11;53.90;;;23.90;;
18592;SDS011;9426;54.118;17.948;2024-01-30T09:26:37;58.93;;;24.40;;
18592;SDS011;9426;54.118;17.948;2024-01-30T09:32:01;52.53;;;22.97;;
18592;SDS011;9426;54.118;17.948;2024-01-30T09:37:25;48.83;;;22.77;;
18592;SDS011;9426;54.118;17.948;2024-01-30T09:42:51;50.30;;;22.47;;
18592;SDS011;9426;54.118;17.948;2024-01-30T09:48:15;47.80;;;21.20;;
18592;SDS011;9426;54.118;17.948;2024-01-30T09:53:38;47.03;;;21.13;;
18592;SDS011;9426;54.118;17.948;2024-01-30T09:59:04;48.23;;;20.57;;
18592;SDS011;9426;54.118;17.948;2024-01-30T10:04:27;40.70;;;19.37;;
18592;SDS011;9426;54.118;17.948;2024-01-30T10:09:52;46.20;;;20.83;;
18592;SDS011;9426;54.118;17.948;2024-01-30T10:15:19;49.30;;;20.37;;
18592;SDS011;9426;54.118;17.948;2024-01-30T10:20:44;42.90;;;19.67;;
18592;SDS011;9426;54.118;17.948;2024-01-30T10:26:08;43.17;;;18.90;;
18592;SDS011;9426;54.118;17.948;2024-01-30T10:31:33;43.70;;;18.97;;
18592;SDS011;9426;54.118;17.948;2024-01-30T10:36:59;45.93;;;19.80;;
18592;SDS011;9426;54.118;17.948;2024-01-30T10:42:25;39.27;;;17.83;;
18592;SDS011;9426;54.118;17.948;2024-01-30T10:47:52;47.23;;;18.30;;
18592;SDS011;9426;54.118;17.948;2024-01-30T10:53:17;38.33;;;18.00;;
18592;SDS011;9426;54.118;17.948;2024-01-30T10:58:41;40.47;;;18.27;;
18592;SDS011;9426;54.118;17.948;2024-01-30T11:04:07;43.13;;;18.27;;
18592;SDS011;9426;54.118;17.948;2024-01-30T11:09:31;40.57;;;18.20;;
18592;SDS011;9426;54.118;17.948;2024-01-30T11:15:04;42.27;;;18.73;;
18592;SDS011;9426;54.118;17.948;2024-01-30T11:20:30;37.63;;;17.97;;
18592;SDS011;9426;54.118;17.948;2024-01-30T11:25:54;43.40;;;17.13;;
18592;SDS011;9426;54.118;17.948;2024-01-30T11:31:22;38.03;;;16.67;;
18592;SDS011;9426;54.118;17.948;2024-01-30T11:36:48;35.33;;;15.90;;
18592;SDS011;9426;54.118;17.948;2024-01-30T11:42:16;44.93;;;17.10;;
18592;SDS011;9426;54.118;17.948;2024-01-30T11:47:40;33.73;;;16.23;;
18592;SDS011;9426;54.118;17.948;2024-01-30T11:53:06;33.20;;;15.73;;
18592;SDS011;9426;54.118;17.948;2024-01-30T11:58:30;33.37;;;15.70;;
18592;SDS011;9426;54.118;17.948;2024-01-30T12:03:54;42.63;;;16.23;;
18592;SDS011;9426;54.118;17.948;2024-01-30T12:09:19;34.30;;;15.10;;
18592;SDS011;9426;54.118;17.948;2024-01-30T12:14:44;31.63;;;15.13;;
18592;SDS011;9426;54.118;17.948;2024-01-30T12:20:09;30.43;;;14.67;;
18592;SDS011;9426;54.118;17.948;2024-01-30T12:25:36;30.97;;;14.23;;
18592;SDS011;9426;54.118;17.948;2024-01-30T12:31:01;34.13;;;15.30;;
18592;SDS011;9426;54.118;17.948;2024-01-30T12:36:25;32.03;;;14.47;;
18592;SDS011;9426;54.118;17.948;2024-01-30T12:41:51;35.97;;;15.40;;
18592;SDS011;9426;54.118;17.948;2024-01-30T12:47:17;32.17;;;15.03;;
18592;SDS011;9426;54.118;17.948;2024-01-30T12:52:42;44.00;;;18.50;;
18592;SDS011;9426;54.118;17.948;2024-01-30T12:58:16;36.70;;;18.57;;
18592;SDS011;9426;54.118;17.948;2024-01-30T13:03:41;36.07;;;16.70;;
18592;SDS011;9426;54.118;17.948;2024-01-30T13:09:04;41.43;;;18.67;;
18592;SDS011;9426;54.118;17.948;2024-01-30T13:14:33;39.70;;;18.77;;
18592;SDS011;9426;54.118;17.948;2024-01-30T13:19:56;41.70;;;18.93;;
18592;SDS011;9426;54.118;17.948;2024-01-30T13:25:24;37.73;;;18.50;;
18592;SDS011;9426;54.118;17.948;2024-01-30T13:30:51;43.70;;;18.47;;
18592;SDS011;9426;54.118;17.948;2024-01-30T13:36:16;42.87;;;19.13;;
18592;SDS011;9426;54.118;17.948;2024-01-30T13:41:44;40.93;;;19.17;;
18592;SDS011;9426;54.118;17.948;2024-01-30T13:47:11;40.67;;;19.27;;
18592;SDS011;9426;54.118;17.948;2024-01-30T13:52:35;37.47;;;17.73;;
18592;SDS011;9426;54.118;17.948;2024-01-30T13:58:01;36.63;;;17.57;;
18592;SDS011;9426;54.118;17.948;2024-01-30T14:03:26;40.20;;;18.97;;
18592;SDS011;9426;54.118;17.948;2024-01-30T14:08:50;40.50;;;19.23;;
18592;SDS011;9426;54.118;17.948;2024-01-30T14:14:18;41.43;;;18.17;;
18592;SDS011;9426;54.118;17.948;2024-01-30T14:19:44;39.53;;;18.17;;
18592;SDS011;9426;54.118;17.948;2024-01-30T14:25:08;35.43;;;17.67;;
18592;SDS011;9426;54.118;17.948;2024-01-30T14:30:32;42.27;;;18.27;;
18592;SDS011;9426;54.118;17.948;2024-01-30T14:35:57;38.17;;;18.03;;
18592;SDS011;9426;54.118;17.948;2024-01-30T14:41:21;36.20;;;17.93;;
18592;SDS011;9426;54.118;17.948;2024-01-30T14:46:46;38.83;;;18.63;;
18592;SDS011;9426;54.118;17.948;2024-01-30T14:52:11;37.43;;;18.40;;
18592;SDS011;9426;54.118;17.948;2024-01-30T14:57:36;45.10;;;20.47;;
18592;SDS011;9426;54.118;17.948;2024-01-30T15:03:03;44.87;;;19.50;;
18592;SDS011;9426;54.118;17.948;2024-01-30T15:08:29;47.47;;;20.10;;
18592;SDS011;9426;54.118;17.948;2024-01-30T15:13:53;41.10;;;20.47;;
18592;SDS011;9426;54.118;17.948;2024-01-30T15:19:17;45.07;;;21.97;;
18592;SDS011;9426;54.118;17.948;2024-01-30T15:24:44;49.30;;;20.60;;
18592;SDS011;9426;54.118;17.948;2024-01-30T15:30:08;60.40;;;25.17;;
18592;SDS011;9426;54.118;17.948;2024-01-30T15:35:34;51.87;;;22.60;;
18592;SDS011;9426;54.118;17.948;2024-01-30T15:41:01;46.17;;;21.90;;
18592;SDS011;9426;54.118;17.948;2024-01-30T15:46:25;45.20;;;21.13;;
18592;SDS011;9426;54.118;17.948;2024-01-30T15:51:49;49.03;;;20.80;;
18592;SDS011;9426;54.118;17.948;2024-01-30T15:57:14;46.67;;;21.80;;
18592;SDS011;9426;54.118;17.948;2024-01-30T16:02:39;49.47;;;21.87;;
18592;SDS011;9426;54.118;17.948;2024-01-30T16:08:03;53.97;;;22.00;;
18592;SDS011;9426;54.118;17.948;2024-01-30T16:13:30;51.80;;;23.77;;
18592;SDS011;9426;54.118;17.948;2024-01-30T16:18:55;48.73;;;21.87;;
18592;SDS011;9426;54.118;17.948;2024-01-30T16:24:21;52.57;;;23.70;;
18592;SDS011;9426;54.118;17.948;2024-01-30T16:29:51;46.70;;;23.37;;
18592;SDS011;9426;54.118;17.948;2024-01-30T16:35:16;53.47;;;23.63;;
18592;SDS011;9426;54.118;17.948;2024-01-30T16:40:44;52.97;;;23.60;;
18592;SDS011;9426;54.118;17.948;2024-01-30T16:46:21;53.03;;;24.47;;
18592;SDS011;9426;54.118;17.948;2024-01-30T16:51:56;52.27;;;26.73;;
18592;SDS011;9426;54.118;17.948;2024-01-30T16:57:22;49.30;;;24.87;;
18592;SDS011;9426;54.118;17.948;2024-01-30T17:02:47;54.40;;;25.47;;
18592;SDS011;9426;54.118;17.948;2024-01-30T17:08:14;58.93;;;26.40;;
18592;SDS011;9426;54.118;17.948;2024-01-30T17:13:40;53.70;;;25.43;;
18592;SDS011;9426;54.118;17.948;2024-01-30T17:19:07;53.90;;;25.80;;
18592;SDS011;9426;54.118;17.948;2024-01-30T17:24:32;50.93;;;25.03;;
18592;SDS011;9426;54.118;17.948;2024-01-30T17:29:58;54.30;;;25.40;;
18592;SDS011;9426;54.118;17.948;2024-01-30T17:35:26;61.03;;;26.70;;
18592;SDS011;9426;54.118;17.948;2024-01-30T17:40:50;82.17;;;35.67;;
18592;SDS011;9426;54.118;17.948;2024-01-30T17:46:21;101.70;;;42.83;;
18592;SDS011;9426;54.118;17.948;2024-01-30T17:51:47;93.77;;;41.93;;
18592;SDS011;9426;54.118;17.948;2024-01-30T17:57:13;125.93;;;51.07;;
18592;SDS011;9426;54.118;17.948;2024-01-30T18:02:40;154.00;;;61.07;;
18592;SDS011;9426;54.118;17.948;2024-01-30T18:08:06;92.13;;;39.83;;
18592;SDS011;9426;54.118;17.948;2024-01-30T18:13:31;84.97;;;36.20;;
18592;SDS011;9426;54.118;17.948;2024-01-30T18:18:56;69.40;;;32.17;;
18592;SDS011;9426;54.118;17.948;2024-01-30T18:24:22;66.97;;;30.03;;
18592;SDS011;9426;54.118;17.948;2024-01-30T18:29:47;66.43;;;29.60;;
18592;SDS011;9426;54.118;17.948;2024-01-30T18:35:13;64.27;;;31.33;;
18592;SDS011;9426;54.118;17.948;2024-01-30T18:40:39;62.40;;;30.63;;
18592;SDS011;9426;54.118;17.948;2024-01-30T18:46:04;65.57;;;30.73;;
18592;SDS011;9426;54.118;17.948;2024-01-30T18:51:28;73.63;;;33.10;;
18592;SDS011;9426;54.118;17.948;2024-01-30T18:56:53;78.77;;;35.57;;
18592;SDS011;9426;54.118;17.948;2024-01-30T19:02:17;90.00;;;36.23;;
18592;SDS011;9426;54.118;17.948;2024-01-30T19:07:42;113.07;;;41.57;;
18592;SDS011;9426;54.118;17.948;2024-01-30T19:13:07;104.40;;;40.27;;
18592;SDS011;9426;54.118;17.948;2024-01-30T19:18:31;152.93;;;49.80;;
18592;SDS011;9426;54.118;17.948;2024-01-30T19:23:55;106.40;;;43.37;;
18592;SDS011;9426;54.118;17.948;2024-01-30T19:29:22;94.10;;;39.57;;
18592;SDS011;9426;54.118;17.948;2024-01-30T19:34:45;106.60;;;41.43;;
18592;SDS011;9426;54.118;17.948;2024-01-30T19:40:09;93.93;;;39.83;;
18592;SDS011;9426;54.118;17.948;2024-01-30T19:45:35;71.00;;;31.97;;
18592;SDS011;9426;54.118;17.948;2024-01-30T19:51:01;78.67;;;35.83;;
18592;SDS011;9426;54.118;17.948;2024-01-30T19:56:25;74.60;;;35.60;;
18592;SDS011;9426;54.118;17.948;2024-01-30T20:01:51;74.10;;;33.67;;
18592;SDS011;9426;54.118;17.948;2024-01-30T20:07:19;72.13;;;35.47;;
18592;SDS011;9426;54.118;17.948;2024-01-30T20:12:47;76.20;;;34.97;;
18592;SDS011;9426;54.118;17.948;2024-01-30T20:18:12;70.07;;;32.00;;
18592;SDS011;9426;54.118;17.948;2024-01-30T20:23:36;73.00;;;32.23;;
18592;SDS011;9426;54.118;17.948;2024-01-30T20:29:01;65.90;;;30.97;;
18592;SDS011;9426;54.118;17.948;2024-01-30T20:34:26;73.40;;;32.73;;
18592;SDS011;9426;54.118;17.948;2024-01-30T20:39:51;65.10;;;32.20;;
18592;SDS011;9426;54.118;17.948;2024-01-30T20:45:15;68.93;;;31.80;;
18592;SDS011;9426;54.118;17.948;2024-01-30T20:50:41;65.93;;;32.33;;
18592;SDS011;9426;54.118;17.948;2024-01-30T20:56:05;70.17;;;31.53;;
18592;SDS011;9426;54.118;17.948;2024-01-30T21:01:28;70.63;;;32.83;;
18592;SDS011;9426;54.118;17.948;2024-01-30T21:06:54;66.13;;;31.13;;
18592;SDS011;9426;54.118;17.948;2024-01-30T21:12:18;69.27;;;32.53;;
18592;SDS011;9426;54.118;17.948;2024-01-30T21:17:43;80.03;;;34.03;;
18592;SDS011;9426;54.118;17.948;2024-01-30T21:23:09;65.23;;;30.80;;
18592;SDS011;9426;54.118;17.948;2024-01-30T21:28:35;67.53;;;31.93;;
18592;SDS011;9426;54.118;17.948;2024-01-30T21:33:59;66.30;;;30.83;;
18592;SDS011;9426;54.118;17.948;2024-01-30T21:39:24;62.40;;;29.40;;
18592;SDS011;9426;54.118;17.948;2024-01-30T21:44:49;66.40;;;31.20;;
18592;SDS011;9426;54.118;17.948;2024-01-30T21:50:16;65.80;;;29.93;;
18592;SDS011;9426;54.118;17.948;2024-01-30T21:55:42;66.50;;;30.03;;
18592;SDS011;9426;54.118;17.948;2024-01-30T22:01:06;62.40;;;29.13;;
18592;SDS011;9426;54.118;17.948;2024-01-30T22:06:30;53.70;;;27.73;;
18592;SDS011;9426;54.118;17.948;2024-01-30T22:11:55;65.90;;;28.73;;
18592;SDS011;9426;54.118;17.948;2024-01-30T22:17:19;51.07;;;26.00;;
18592;SDS011;9426;54.118;17.948;2024-01-30T22:22:45;56.70;;;26.23;;
18592;SDS011;9426;54.118;17.948;2024-01-30T22:28:10;57.13;;;26.00;;
18592;SDS011;9426;54.118;17.948;2024-01-30T22:33:34;60.60;;;26.70;;
18592;SDS011;9426;54.118;17.948;2024-01-30T22:38:57;64.20;;;28.70;;
18592;SDS011;9426;54.118;17.948;2024-01-30T22:44:22;52.87;;;25.63;;
18592;SDS011;9426;54.118;17.948;2024-01-30T22:49:46;58.07;;;25.90;;
18592;SDS011;9426;54.118;17.948;2024-01-30T22:55:10;50.03;;;23.23;;
18592;SDS011;9426;54.118;17.948;2024-01-30T23:00:35;54.73;;;24.00;;
18592;SDS011;9426;54.118;17.948;2024-01-30T23:06:20;50.60;;;24.27;;
18592;SDS011;9426;54.118;17.948;2024-01-30T23:12:04;51.70;;;24.43;;
18592;SDS011;9426;54.118;17.948;2024-01-30T23:17:49;49.37;;;23.57;;
18592;SDS011;9426;54.118;17.948;2024-01-30T23:23:33;52.33;;;23.97;;
18592;SDS011;9426;54.118;17.948;2024-01-30T23:29:16;53.93;;;24.30;;
18592;SDS011;9426;54.118;17.948;2024-01-30T23:35:01;46.60;;;21.80;;
18592;SDS011;9426;54.118;17.948;2024-01-30T23:40:45;48.37;;;22.83;;
18592;SDS011;9426;54.118;17.948;2024-01-30T23:46:29;47.70;;;21.67;;
18592;SDS011;9426;54.118;17.948;2024-01-30T23:52:14;43.50;;;20.97;;
18592;SDS011;9426;54.118;17.948;2024-01-30T23:57:57;40.33;;;19.77;;
